sensor_id;sensor_type;location;lat;lon;timestamp;temperature;humidity
62581;DHT22;48640;48.770;9.148;2023-12-04T00:01:51;-2.10;99.90
62581;DHT22;48640;48.770;9.148;2023-12-04T00:04:18;-2.50;99.90
62581;DHT22;48640;48.770;9.148;2023-12-04T00:06:45;-1.70;99.90
62581;DHT22;48640;48.770;9.148;2023-12-04T00:09:12;-2.20;99.90
62581;DHT22;48640;48.770;9.148;2023-12-04T00:11:39;-2.30;99.90
62581;DHT22;48640;48.770;9.148;2023-12-04T00:14:07;-1.90;99.90
62581;DHT22;48640;48.770;9.148;2023-12-04T00:16:34;-2.10;99.90
62581;DHT22;48640;48.770;9.148;2023-12-04T00:19:01;-2.70;99.90
62581;DHT22;48640;48.770;9.148;2023-12-04T00:21:28;-2.20;99.90
62581;DHT22;48640;48.770;9.148;2023-12-04T00:23:55;-2.60;99.90
62581;DHT22;48640;48.770;9.148;2023-12-04T00:26:22;-2.20;99.90
62581;DHT22;48640;48.770;9.148;2023-12-04T00:28:49;-2.40;99.90
62581;DHT22;48640;48.770;9.148;2023-12-04T00:31:17;-2.40;99.90
62581;DHT22;48640;48.770;9.148;2023-12-04T00:33:44;-2.30;99.90
62581;DHT22;48640;48.770;9.148;2023-12-04T00:36:11;-2.50;99.90
62581;DHT22;48640;48.770;9.148;2023-12-04T00:38:38;-2.20;99.90
62581;DHT22;48640;48.770;9.148;2023-12-04T00:41:05;-2.50;99.90
62581;DHT22;48640;48.770;9.148;2023-12-04T00:43:32;-2.30;99.90
62581;DHT22;48640;48.770;9.148;2023-12-04T00:45:59;-2.50;99.90
62581;DHT22;48640;48.770;9.148;2023-12-04T00:48:28;-2.40;99.90
62581;DHT22;48640;48.770;9.148;2023-12-04T00:50:55;-2.30;99.90
62581;DHT22;48640;48.770;9.148;2023-12-04T00:53:22;-1.80;99.90
62581;DHT22;48640;48.770;9.148;2023-12-04T00:55:49;-2.50;99.90
62581;DHT22;48640;48.770;9.148;2023-12-04T00:58:16;-2.40;99.90
62581;DHT22;48640;48.770;9.148;2023-12-04T01:00:43;-2.50;99.90
62581;DHT22;48640;48.770;9.148;2023-12-04T01:03:10;-2.50;99.90
62581;DHT22;48640;48.770;9.148;2023-12-04T01:05:38;-2.40;99.90
62581;DHT22;48640;48.770;9.148;2023-12-04T01:08:05;-1.80;99.90
62581;DHT22;48640;48.770;9.148;2023-12-04T01:10:32;-2.20;99.90
62581;DHT22;48640;48.770;9.148;2023-12-04T01:12:59;-2.10;99.90
62581;DHT22;48640;48.770;9.148;2023-12-04T01:15:26;-2.30;99.90
62581;DHT22;48640;48.770;9.148;2023-12-04T01:17:53;-2.30;99.90
62581;DHT22;48640;48.770;9.148;2023-12-04T01:20:20;-1.60;99.90
62581;DHT22;48640;48.770;9.148;2023-12-04T01:22:48;-2.10;99.90
62581;DHT22;48640;48.770;9.148;2023-12-04T01:25:15;-1.60;99.90
62581;DHT22;48640;48.770;9.148;2023-12-04T01:27:42;-2.20;99.90
62581;DHT22;48640;48.770;9.148;2023-12-04T01:30:10;-2.30;99.90
62581;DHT22;48640;48.770;9.148;2023-12-04T01:32:39;-2.40;99.90
62581;DHT22;48640;48.770;9.148;2023-12-04T01:35:07;-2.60;99.90
62581;DHT22;48640;48.770;9.148;2023-12-04T01:37:33;-2.10;99.90
62581;DHT22;48640;48.770;9.148;2023-12-04T01:40:02;-2.70;99.90
62581;DHT22;48640;48.770;9.148;2023-12-04T01:42:32;-1.90;99.90
62581;DHT22;48640;48.770;9.148;2023-12-04T01:44:59;-2.80;99.90
62581;DHT22;48640;48.770;9.148;2023-12-04T01:47:26;-2.60;99.90
62581;DHT22;48640;48.770;9.148;2023-12-04T01:49:53;-2.10;99.90
62581;DHT22;48640;48.770;9.148;2023-12-04T01:52:20;-2.70;99.90
62581;DHT22;48640;48.770;9.148;2023-12-04T01:54:47;-2.70;99.90
62581;DHT22;48640;48.770;9.148;2023-12-04T01:57:15;-2.50;99.90
62581;DHT22;48640;48.770;9.148;2023-12-04T01:59:43;-2.50;99.90
62581;DHT22;48640;48.770;9.148;2023-12-04T02:02:10;-2.50;99.90
62581;DHT22;48640;48.770;9.148;2023-12-04T02:04:37;-2.50;99.90
62581;DHT22;48640;48.770;9.148;2023-12-04T02:07:04;-2.30;99.90
62581;DHT22;48640;48.770;9.148;2023-12-04T02:09:31;-1.80;99.90
62581;DHT22;48640;48.770;9.148;2023-12-04T02:11:58;-2.20;99.90
62581;DHT22;48640;48.770;9.148;2023-12-04T02:14:27;-2.30;99.90
62581;DHT22;48640;48.770;9.148;2023-12-04T02:16:55;-2.10;99.90
62581;DHT22;48640;48.770;9.148;2023-12-04T02:19:22;-2.30;99.90
62581;DHT22;48640;48.770;9.148;2023-12-04T02:21:49;-2.30;99.90
62581;DHT22;48640;48.770;9.148;2023-12-04T02:24:18;-2.40;99.90
62581;DHT22;48640;48.770;9.148;2023-12-04T02:26:47;-2.50;99.90
62581;DHT22;48640;48.770;9.148;2023-12-04T02:29:23;-2.40;99.90
62581;DHT22;48640;48.770;9.148;2023-12-04T02:31:51;-2.50;99.90
62581;DHT22;48640;48.770;9.148;2023-12-04T02:34:20;-2.40;99.90
62581;DHT22;48640;48.770;9.148;2023-12-04T02:36:48;-2.50;99.90
62581;DHT22;48640;48.770;9.148;2023-12-04T02:39:15;-2.60;99.90
62581;DHT22;48640;48.770;9.148;2023-12-04T02:41:44;-2.70;99.90
62581;DHT22;48640;48.770;9.148;2023-12-04T02:44:11;-2.70;99.90
62581;DHT22;48640;48.770;9.148;2023-12-04T02:46:38;-2.10;99.90
62581;DHT22;48640;48.770;9.148;2023-12-04T02:49:05;-2.60;99.90
62581;DHT22;48640;48.770;9.148;2023-12-04T02:51:32;-2.50;99.90
62581;DHT22;48640;48.770;9.148;2023-12-04T02:53:58;-2.60;99.90
62581;DHT22;48640;48.770;9.148;2023-12-04T02:56:25;-2.50;99.90
62581;DHT22;48640;48.770;9.148;2023-12-04T02:58:54;-2.50;99.90
62581;DHT22;48640;48.770;9.148;2023-12-04T03:01:20;-2.60;99.90
62581;DHT22;48640;48.770;9.148;2023-12-04T03:03:47;-2.60;99.90
62581;DHT22;48640;48.770;9.148;2023-12-04T03:06:14;-2.60;99.90
62581;DHT22;48640;48.770;9.148;2023-12-04T03:08:41;-2.50;99.90
62581;DHT22;48640;48.770;9.148;2023-12-04T03:11:08;-2.30;99.90
62581;DHT22;48640;48.770;9.148;2023-12-04T03:13:35;-2.40;99.90
62581;DHT22;48640;48.770;9.148;2023-12-04T03:16:04;-1.60;99.90
62581;DHT22;48640;48.770;9.148;2023-12-04T03:18:31;-2.40;99.90
62581;DHT22;48640;48.770;9.148;2023-12-04T03:20:58;-2.60;99.90
62581;DHT22;48640;48.770;9.148;2023-12-04T03:23:24;-2.30;99.90
62581;DHT22;48640;48.770;9.148;2023-12-04T03:25:51;-2.50;99.90
62581;DHT22;48640;48.770;9.148;2023-12-04T03:28:18;-2.00;99.90
62581;DHT22;48640;48.770;9.148;2023-12-04T03:30:45;-2.30;99.90
62581;DHT22;48640;48.770;9.148;2023-12-04T03:33:13;-1.90;99.90
62581;DHT22;48640;48.770;9.148;2023-12-04T03:35:40;-2.20;99.90
62581;DHT22;48640;48.770;9.148;2023-12-04T03:38:07;-2.20;99.90
62581;DHT22;48640;48.770;9.148;2023-12-04T03:40:34;-1.70;99.90
62581;DHT22;48640;48.770;9.148;2023-12-04T03:43:01;-1.80;99.90
62581;DHT22;48640;48.770;9.148;2023-12-04T03:45:28;-2.20;99.90
62581;DHT22;48640;48.770;9.148;2023-12-04T03:47:55;-1.70;99.90
62581;DHT22;48640;48.770;9.148;2023-12-04T03:50:23;-2.40;99.90
62581;DHT22;48640;48.770;9.148;2023-12-04T03:52:50;-2.70;99.90
62581;DHT22;48640;48.770;9.148;2023-12-04T03:55:17;-2.80;99.90
62581;DHT22;48640;48.770;9.148;2023-12-04T03:57:45;-2.40;99.90
62581;DHT22;48640;48.770;9.148;2023-12-04T04:00:13;-2.00;99.90
62581;DHT22;48640;48.770;9.148;2023-12-04T04:02:41;-2.30;99.90
62581;DHT22;48640;48.770;9.148;2023-12-04T04:05:08;-2.30;99.90
62581;DHT22;48640;48.770;9.148;2023-12-04T04:07:36;-1.80;99.90
62581;DHT22;48640;48.770;9.148;2023-12-04T04:10:04;-2.30;99.90
62581;DHT22;48640;48.770;9.148;2023-12-04T04:12:31;-2.10;99.90
62581;DHT22;48640;48.770;9.148;2023-12-04T04:14:58;-1.20;99.90
62581;DHT22;48640;48.770;9.148;2023-12-04T04:17:25;-2.20;99.90
62581;DHT22;48640;48.770;9.148;2023-12-04T04:19:52;-2.10;99.90
62581;DHT22;48640;48.770;9.148;2023-12-04T04:22:19;-2.10;99.90
62581;DHT22;48640;48.770;9.148;2023-12-04T04:24:48;-2.00;99.90
62581;DHT22;48640;48.770;9.148;2023-12-04T04:27:15;-2.00;99.90
62581;DHT22;48640;48.770;9.148;2023-12-04T04:29:42;-2.00;99.90
62581;DHT22;48640;48.770;9.148;2023-12-04T04:32:09;-2.10;99.90
62581;DHT22;48640;48.770;9.148;2023-12-04T04:34:35;-2.10;99.90
62581;DHT22;48640;48.770;9.148;2023-12-04T04:37:02;-2.20;99.90
62581;DHT22;48640;48.770;9.148;2023-12-04T04:39:29;-2.30;99.90
62581;DHT22;48640;48.770;9.148;2023-12-04T04:41:58;-2.40;99.90
62581;DHT22;48640;48.770;9.148;2023-12-04T04:44:24;-2.60;99.90
62581;DHT22;48640;48.770;9.148;2023-12-04T04:46:51;-2.60;99.90
62581;DHT22;48640;48.770;9.148;2023-12-04T04:49:18;-2.20;99.90
62581;DHT22;48640;48.770;9.148;2023-12-04T04:51:45;-2.40;99.90
62581;DHT22;48640;48.770;9.148;2023-12-04T04:54:12;-2.10;99.90
62581;DHT22;48640;48.770;9.148;2023-12-04T04:56:39;-2.10;99.90
62581;DHT22;48640;48.770;9.148;2023-12-04T04:59:07;-2.30;99.90
62581;DHT22;48640;48.770;9.148;2023-12-04T05:01:34;-2.60;99.90
62581;DHT22;48640;48.770;9.148;2023-12-04T05:04:02;-2.10;99.90
62581;DHT22;48640;48.770;9.148;2023-12-04T05:06:29;-2.10;99.90
62581;DHT22;48640;48.770;9.148;2023-12-04T05:08:56;-2.30;99.90
62581;DHT22;48640;48.770;9.148;2023-12-04T05:11:23;-2.50;99.90
62581;DHT22;48640;48.770;9.148;2023-12-04T05:13:50;-2.40;99.90
62581;DHT22;48640;48.770;9.148;2023-12-04T05:16:18;-2.60;99.90
62581;DHT22;48640;48.770;9.148;2023-12-04T05:18:45;-2.70;99.90
62581;DHT22;48640;48.770;9.148;2023-12-04T05:21:12;-2.90;99.90
62581;DHT22;48640;48.770;9.148;2023-12-04T05:23:39;-2.70;99.90
62581;DHT22;48640;48.770;9.148;2023-12-04T05:26:07;-2.60;99.90
62581;DHT22;48640;48.770;9.148;2023-12-04T05:28:34;-2.40;99.90
62581;DHT22;48640;48.770;9.148;2023-12-04T05:31:01;-2.50;99.90
62581;DHT22;48640;48.770;9.148;2023-12-04T05:33:30;-2.40;99.90
62581;DHT22;48640;48.770;9.148;2023-12-04T05:35:56;-2.50;99.90
62581;DHT22;48640;48.770;9.148;2023-12-04T05:38:23;-2.30;99.90
62581;DHT22;48640;48.770;9.148;2023-12-04T05:40:50;-2.20;99.90
62581;DHT22;48640;48.770;9.148;2023-12-04T05:43:17;-2.20;99.90
62581;DHT22;48640;48.770;9.148;2023-12-04T05:45:44;-2.30;99.90
62581;DHT22;48640;48.770;9.148;2023-12-04T05:48:11;-2.20;99.90
62581;DHT22;48640;48.770;9.148;2023-12-04T05:50:39;-2.00;99.90
62581;DHT22;48640;48.770;9.148;2023-12-04T05:53:06;-2.10;99.90
62581;DHT22;48640;48.770;9.148;2023-12-04T05:55:33;-2.10;99.90
62581;DHT22;48640;48.770;9.148;2023-12-04T05:58:00;-2.00;99.90
62581;DHT22;48640;48.770;9.148;2023-12-04T06:00:27;-2.00;99.90
62581;DHT22;48640;48.770;9.148;2023-12-04T06:02:54;-1.70;99.90
62581;DHT22;48640;48.770;9.148;2023-12-04T06:05:21;-1.80;99.90
62581;DHT22;48640;48.770;9.148;2023-12-04T06:07:50;-1.20;99.90
62581;DHT22;48640;48.770;9.148;2023-12-04T06:10:17;-2.10;99.90
62581;DHT22;48640;48.770;9.148;2023-12-04T06:12:44;-2.10;99.90
62581;DHT22;48640;48.770;9.148;2023-12-04T06:15:10;-1.90;99.90
62581;DHT22;48640;48.770;9.148;2023-12-04T06:17:38;-2.30;99.90
62581;DHT22;48640;48.770;9.148;2023-12-04T06:20:06;-1.70;99.90
62581;DHT22;48640;48.770;9.148;2023-12-04T06:22:33;-1.60;99.90
62581;DHT22;48640;48.770;9.148;2023-12-04T06:25:03;-1.90;99.90
62581;DHT22;48640;48.770;9.148;2023-12-04T06:27:30;-2.10;99.90
62581;DHT22;48640;48.770;9.148;2023-12-04T06:29:58;-2.00;99.90
62581;DHT22;48640;48.770;9.148;2023-12-04T06:32:25;-2.10;99.90
62581;DHT22;48640;48.770;9.148;2023-12-04T06:34:52;-1.90;99.90
62581;DHT22;48640;48.770;9.148;2023-12-04T06:37:21;-1.70;99.90
62581;DHT22;48640;48.770;9.148;2023-12-04T06:39:48;-2.00;99.90
62581;DHT22;48640;48.770;9.148;2023-12-04T06:42:18;-1.80;99.90
62581;DHT22;48640;48.770;9.148;2023-12-04T06:44:45;-1.90;99.90
62581;DHT22;48640;48.770;9.148;2023-12-04T06:47:13;-1.80;99.90
62581;DHT22;48640;48.770;9.148;2023-12-04T06:49:44;-1.90;99.90
62581;DHT22;48640;48.770;9.148;2023-12-04T06:52:11;-1.80;99.90
62581;DHT22;48640;48.770;9.148;2023-12-04T06:54:37;-2.10;99.90
62581;DHT22;48640;48.770;9.148;2023-12-04T06:57:04;-2.40;99.90
62581;DHT22;48640;48.770;9.148;2023-12-04T06:59:33;-1.80;99.90
62581;DHT22;48640;48.770;9.148;2023-12-04T07:01:59;-1.80;99.90
62581;DHT22;48640;48.770;9.148;2023-12-04T07:04:27;-1.30;99.90
62581;DHT22;48640;48.770;9.148;2023-12-04T07:06:54;-1.00;99.90
62581;DHT22;48640;48.770;9.148;2023-12-04T07:09:21;-1.90;99.90
62581;DHT22;48640;48.770;9.148;2023-12-04T07:11:48;-1.40;99.90
62581;DHT22;48640;48.770;9.148;2023-12-04T07:14:15;-1.90;99.90
62581;DHT22;48640;48.770;9.148;2023-12-04T07:16:44;-2.00;99.90
62581;DHT22;48640;48.770;9.148;2023-12-04T07:19:11;-1.50;99.90
62581;DHT22;48640;48.770;9.148;2023-12-04T07:21:40;-1.50;99.90
62581;DHT22;48640;48.770;9.148;2023-12-04T07:24:07;-2.20;99.90
62581;DHT22;48640;48.770;9.148;2023-12-04T07:26:34;-1.90;99.90
62581;DHT22;48640;48.770;9.148;2023-12-04T07:29:01;-0.90;99.90
62581;DHT22;48640;48.770;9.148;2023-12-04T07:31:28;-1.70;99.90
62581;DHT22;48640;48.770;9.148;2023-12-04T07:33:57;-2.00;99.90
62581;DHT22;48640;48.770;9.148;2023-12-04T07:36:26;-1.30;99.90
62581;DHT22;48640;48.770;9.148;2023-12-04T07:38:52;-1.80;99.90
62581;DHT22;48640;48.770;9.148;2023-12-04T07:41:20;-1.40;99.90
62581;DHT22;48640;48.770;9.148;2023-12-04T07:43:47;-1.80;99.90
62581;DHT22;48640;48.770;9.148;2023-12-04T07:46:14;-1.90;99.90
62581;DHT22;48640;48.770;9.148;2023-12-04T07:48:41;-2.00;99.90
62581;DHT22;48640;48.770;9.148;2023-12-04T07:51:10;-1.70;99.90
62581;DHT22;48640;48.770;9.148;2023-12-04T07:53:37;-1.60;99.90
62581;DHT22;48640;48.770;9.148;2023-12-04T07:56:05;-1.90;99.90
62581;DHT22;48640;48.770;9.148;2023-12-04T07:58:33;-1.70;99.90
62581;DHT22;48640;48.770;9.148;2023-12-04T08:01:00;-1.80;99.90
62581;DHT22;48640;48.770;9.148;2023-12-04T08:03:27;-1.50;99.90
62581;DHT22;48640;48.770;9.148;2023-12-04T08:05:54;-1.30;99.90
62581;DHT22;48640;48.770;9.148;2023-12-04T08:08:22;-1.20;99.90
62581;DHT22;48640;48.770;9.148;2023-12-04T08:10:53;-1.30;99.90
62581;DHT22;48640;48.770;9.148;2023-12-04T08:13:20;-1.00;99.90
62581;DHT22;48640;48.770;9.148;2023-12-04T08:15:47;-1.10;99.90
62581;DHT22;48640;48.770;9.148;2023-12-04T08:18:14;-1.10;99.90
62581;DHT22;48640;48.770;9.148;2023-12-04T08:20:45;-1.20;99.90
62581;DHT22;48640;48.770;9.148;2023-12-04T08:23:12;-1.10;99.90
62581;DHT22;48640;48.770;9.148;2023-12-04T08:25:40;-1.20;99.90
62581;DHT22;48640;48.770;9.148;2023-12-04T08:28:07;-0.90;99.90
62581;DHT22;48640;48.770;9.148;2023-12-04T08:30:34;-1.10;99.90
62581;DHT22;48640;48.770;9.148;2023-12-04T08:33:01;-1.80;99.90
62581;DHT22;48640;48.770;9.148;2023-12-04T08:35:28;-1.70;99.90
62581;DHT22;48640;48.770;9.148;2023-12-04T08:37:55;-1.30;99.90
62581;DHT22;48640;48.770;9.148;2023-12-04T08:40:22;-0.50;99.90
62581;DHT22;48640;48.770;9.148;2023-12-04T08:42:50;-1.50;99.90
62581;DHT22;48640;48.770;9.148;2023-12-04T08:45:24;-1.00;99.90
62581;DHT22;48640;48.770;9.148;2023-12-04T08:47:51;-0.80;99.90
62581;DHT22;48640;48.770;9.148;2023-12-04T08:50:18;-0.80;99.90
62581;DHT22;48640;48.770;9.148;2023-12-04T08:52:45;-0.40;99.90
62581;DHT22;48640;48.770;9.148;2023-12-04T08:55:12;-0.70;99.90
62581;DHT22;48640;48.770;9.148;2023-12-04T08:57:39;-0.20;99.90
62581;DHT22;48640;48.770;9.148;2023-12-04T09:00:08;-0.20;99.90
62581;DHT22;48640;48.770;9.148;2023-12-04T09:02:35;-0.70;99.90
62581;DHT22;48640;48.770;9.148;2023-12-04T09:05:07;-0.40;99.90
62581;DHT22;48640;48.770;9.148;2023-12-04T09:07:35;-0.60;99.90
62581;DHT22;48640;48.770;9.148;2023-12-04T09:10:02;-0.20;99.90
62581;DHT22;48640;48.770;9.148;2023-12-04T09:12:29;-0.60;99.90
62581;DHT22;48640;48.770;9.148;2023-12-04T09:14:56;-0.20;99.90
62581;DHT22;48640;48.770;9.148;2023-12-04T09:17:24;-0.30;99.90
62581;DHT22;48640;48.770;9.148;2023-12-04T09:19:51;-0.90;99.90
62581;DHT22;48640;48.770;9.148;2023-12-04T09:22:18;-0.20;99.90
62581;DHT22;48640;48.770;9.148;2023-12-04T09:24:45;-0.40;99.90
62581;DHT22;48640;48.770;9.148;2023-12-04T09:27:12;-0.50;99.90
62581;DHT22;48640;48.770;9.148;2023-12-04T09:29:40;-0.40;99.90
62581;DHT22;48640;48.770;9.148;2023-12-04T09:32:11;0.50;99.90
62581;DHT22;48640;48.770;9.148;2023-12-04T09:34:39;-0.20;99.90
62581;DHT22;48640;48.770;9.148;2023-12-04T09:37:06;0.10;99.90
62581;DHT22;48640;48.770;9.148;2023-12-04T09:39:34;-0.20;99.90
62581;DHT22;48640;48.770;9.148;2023-12-04T09:42:01;0.70;99.90
62581;DHT22;48640;48.770;9.148;2023-12-04T09:44:29;0.90;99.90
62581;DHT22;48640;48.770;9.148;2023-12-04T09:46:57;0.20;99.90
62581;DHT22;48640;48.770;9.148;2023-12-04T09:49:32;0.50;99.90
62581;DHT22;48640;48.770;9.148;2023-12-04T09:52:01;0.60;99.90
62581;DHT22;48640;48.770;9.148;2023-12-04T09:54:28;0.60;99.90
62581;DHT22;48640;48.770;9.148;2023-12-04T09:57:04;1.10;99.90
62581;DHT22;48640;48.770;9.148;2023-12-04T09:59:31;0.40;99.90
62581;DHT22;48640;48.770;9.148;2023-12-04T10:02:03;0.00;99.90
62581;DHT22;48640;48.770;9.148;2023-12-04T10:04:32;0.30;99.90
62581;DHT22;48640;48.770;9.148;2023-12-04T10:07:00;0.90;99.90
62581;DHT22;48640;48.770;9.148;2023-12-04T10:09:28;0.80;99.90
62581;DHT22;48640;48.770;9.148;2023-12-04T10:11:56;0.00;99.90
62581;DHT22;48640;48.770;9.148;2023-12-04T10:14:23;1.10;99.90
62581;DHT22;48640;48.770;9.148;2023-12-04T10:16:51;0.70;99.90
62581;DHT22;48640;48.770;9.148;2023-12-04T10:19:20;0.80;99.90
62581;DHT22;48640;48.770;9.148;2023-12-04T10:21:51;0.80;99.90
62581;DHT22;48640;48.770;9.148;2023-12-04T10:24:30;0.80;99.90
62581;DHT22;48640;48.770;9.148;2023-12-04T10:26:58;1.10;99.90
62581;DHT22;48640;48.770;9.148;2023-12-04T10:29:27;0.90;99.90
62581;DHT22;48640;48.770;9.148;2023-12-04T10:31:56;1.30;99.90
62581;DHT22;48640;48.770;9.148;2023-12-04T10:34:25;1.00;99.90
62581;DHT22;48640;48.770;9.148;2023-12-04T10:36:52;1.10;99.90
62581;DHT22;48640;48.770;9.148;2023-12-04T10:39:20;1.30;99.90
62581;DHT22;48640;48.770;9.148;2023-12-04T10:41:59;1.20;99.90
62581;DHT22;48640;48.770;9.148;2023-12-04T10:44:26;1.30;99.90
62581;DHT22;48640;48.770;9.148;2023-12-04T10:46:55;1.10;99.90
62581;DHT22;48640;48.770;9.148;2023-12-04T10:49:26;1.00;99.90
62581;DHT22;48640;48.770;9.148;2023-12-04T10:51:55;1.50;99.90
62581;DHT22;48640;48.770;9.148;2023-12-04T10:54:25;1.40;99.90
62581;DHT22;48640;48.770;9.148;2023-12-04T10:56:58;1.40;99.90
62581;DHT22;48640;48.770;9.148;2023-12-04T10:59:29;1.40;99.90
62581;DHT22;48640;48.770;9.148;2023-12-04T11:02:01;1.30;99.90
62581;DHT22;48640;48.770;9.148;2023-12-04T11:04:32;1.70;99.90
62581;DHT22;48640;48.770;9.148;2023-12-04T11:07:02;1.60;99.90
62581;DHT22;48640;48.770;9.148;2023-12-04T11:09:31;1.80;99.90
62581;DHT22;48640;48.770;9.148;2023-12-04T11:12:06;2.50;99.90
62581;DHT22;48640;48.770;9.148;2023-12-04T11:14:39;2.00;99.90
62581;DHT22;48640;48.770;9.148;2023-12-04T11:17:12;1.80;99.90
62581;DHT22;48640;48.770;9.148;2023-12-04T11:19:50;2.00;99.90
62581;DHT22;48640;48.770;9.148;2023-12-04T11:22:19;2.00;99.90
62581;DHT22;48640;48.770;9.148;2023-12-04T11:24:47;2.40;99.90
62581;DHT22;48640;48.770;9.148;2023-12-04T11:27:17;2.10;99.90
62581;DHT22;48640;48.770;9.148;2023-12-04T11:29:45;2.20;99.90
62581;DHT22;48640;48.770;9.148;2023-12-04T11:32:14;2.20;99.90
62581;DHT22;48640;48.770;9.148;2023-12-04T11:34:50;2.00;99.90
62581;DHT22;48640;48.770;9.148;2023-12-04T11:37:20;2.10;99.90
62581;DHT22;48640;48.770;9.148;2023-12-04T11:39:47;2.40;99.90
62581;DHT22;48640;48.770;9.148;2023-12-04T11:42:24;1.80;99.90
62581;DHT22;48640;48.770;9.148;2023-12-04T11:44:56;2.60;99.90
62581;DHT22;48640;48.770;9.148;2023-12-04T11:47:23;2.40;99.90
62581;DHT22;48640;48.770;9.148;2023-12-04T11:49:50;2.10;99.90
62581;DHT22;48640;48.770;9.148;2023-12-04T11:52:32;2.20;99.90
62581;DHT22;48640;48.770;9.148;2023-12-04T11:55:08;2.20;99.90
62581;DHT22;48640;48.770;9.148;2023-12-04T11:57:37;1.90;99.90
62581;DHT22;48640;48.770;9.148;2023-12-04T12:00:13;2.00;99.90
62581;DHT22;48640;48.770;9.148;2023-12-04T12:02:47;2.30;99.90
62581;DHT22;48640;48.770;9.148;2023-12-04T12:05:14;2.60;99.90
62581;DHT22;48640;48.770;9.148;2023-12-04T12:07:42;2.10;99.90
62581;DHT22;48640;48.770;9.148;2023-12-04T12:10:10;2.00;99.90
62581;DHT22;48640;48.770;9.148;2023-12-04T12:12:39;1.90;99.90
62581;DHT22;48640;48.770;9.148;2023-12-04T12:15:08;1.90;99.90
62581;DHT22;48640;48.770;9.148;2023-12-04T12:17:40;2.10;99.90
62581;DHT22;48640;48.770;9.148;2023-12-04T12:20:08;2.10;99.90
62581;DHT22;48640;48.770;9.148;2023-12-04T12:22:37;2.00;99.90
62581;DHT22;48640;48.770;9.148;2023-12-04T12:25:07;1.70;99.90
62581;DHT22;48640;48.770;9.148;2023-12-04T12:27:34;1.60;99.90
62581;DHT22;48640;48.770;9.148;2023-12-04T12:30:03;1.80;99.90
62581;DHT22;48640;48.770;9.148;2023-12-04T12:32:31;1.90;99.90
62581;DHT22;48640;48.770;9.148;2023-12-04T12:34:58;1.70;99.90
62581;DHT22;48640;48.770;9.148;2023-12-04T12:37:25;1.80;99.90
62581;DHT22;48640;48.770;9.148;2023-12-04T12:39:52;1.70;99.90
62581;DHT22;48640;48.770;9.148;2023-12-04T12:42:22;1.60;99.90
62581;DHT22;48640;48.770;9.148;2023-12-04T12:44:49;2.20;99.90
62581;DHT22;48640;48.770;9.148;2023-12-04T12:47:17;1.80;99.90
62581;DHT22;48640;48.770;9.148;2023-12-04T12:49:44;2.40;99.90
62581;DHT22;48640;48.770;9.148;2023-12-04T12:52:15;2.00;99.90
62581;DHT22;48640;48.770;9.148;2023-12-04T12:54:43;1.60;99.90
62581;DHT22;48640;48.770;9.148;2023-12-04T12:57:10;1.60;99.90
62581;DHT22;48640;48.770;9.148;2023-12-04T12:59:38;1.60;99.90
62581;DHT22;48640;48.770;9.148;2023-12-04T13:02:06;2.10;99.90
62581;DHT22;48640;48.770;9.148;2023-12-04T13:04:40;2.30;99.90
62581;DHT22;48640;48.770;9.148;2023-12-04T13:07:07;2.40;99.90
62581;DHT22;48640;48.770;9.148;2023-12-04T13:09:34;2.60;99.90
62581;DHT22;48640;48.770;9.148;2023-12-04T13:12:02;2.60;99.90
62581;DHT22;48640;48.770;9.148;2023-12-04T13:14:29;2.50;99.90
62581;DHT22;48640;48.770;9.148;2023-12-04T13:16:56;2.70;99.90
62581;DHT22;48640;48.770;9.148;2023-12-04T13:19:23;2.20;99.90
62581;DHT22;48640;48.770;9.148;2023-12-04T13:21:51;2.60;99.90
62581;DHT22;48640;48.770;9.148;2023-12-04T13:24:17;2.80;99.90
62581;DHT22;48640;48.770;9.148;2023-12-04T13:26:44;2.60;99.90
62581;DHT22;48640;48.770;9.148;2023-12-04T13:29:11;2.50;99.90
62581;DHT22;48640;48.770;9.148;2023-12-04T13:31:39;2.10;99.90
62581;DHT22;48640;48.770;9.148;2023-12-04T13:34:06;2.40;99.90
62581;DHT22;48640;48.770;9.148;2023-12-04T13:36:37;2.10;99.90
62581;DHT22;48640;48.770;9.148;2023-12-04T13:39:05;2.00;99.90
62581;DHT22;48640;48.770;9.148;2023-12-04T13:41:42;2.10;99.90
62581;DHT22;48640;48.770;9.148;2023-12-04T13:44:27;1.40;99.90
62581;DHT22;48640;48.770;9.148;2023-12-04T13:46:53;1.60;99.90
62581;DHT22;48640;48.770;9.148;2023-12-04T13:49:24;1.60;99.90
62581;DHT22;48640;48.770;9.148;2023-12-04T13:51:51;1.40;99.90
62581;DHT22;48640;48.770;9.148;2023-12-04T13:54:20;1.80;99.90
62581;DHT22;48640;48.770;9.148;2023-12-04T13:56:58;1.70;99.90
62581;DHT22;48640;48.770;9.148;2023-12-04T13:59:26;1.70;99.90
62581;DHT22;48640;48.770;9.148;2023-12-04T14:01:53;1.60;99.90
62581;DHT22;48640;48.770;9.148;2023-12-04T14:04:25;1.80;99.90
62581;DHT22;48640;48.770;9.148;2023-12-04T14:06:52;1.90;99.90
62581;DHT22;48640;48.770;9.148;2023-12-04T14:09:21;1.80;99.90
62581;DHT22;48640;48.770;9.148;2023-12-04T14:11:47;1.80;99.90
62581;DHT22;48640;48.770;9.148;2023-12-04T14:14:14;1.90;99.90
62581;DHT22;48640;48.770;9.148;2023-12-04T14:16:41;1.60;99.90
62581;DHT22;48640;48.770;9.148;2023-12-04T14:19:11;1.30;99.90
62581;DHT22;48640;48.770;9.148;2023-12-04T14:21:38;1.50;99.90
62581;DHT22;48640;48.770;9.148;2023-12-04T14:24:05;1.40;99.90
62581;DHT22;48640;48.770;9.148;2023-12-04T14:26:33;1.30;99.90
62581;DHT22;48640;48.770;9.148;2023-12-04T14:29:01;1.20;99.90
62581;DHT22;48640;48.770;9.148;2023-12-04T14:31:33;1.00;99.90
62581;DHT22;48640;48.770;9.148;2023-12-04T14:34:00;1.20;99.90
62581;DHT22;48640;48.770;9.148;2023-12-04T14:36:28;1.50;99.90
62581;DHT22;48640;48.770;9.148;2023-12-04T14:38:57;1.10;99.90
62581;DHT22;48640;48.770;9.148;2023-12-04T14:41:24;1.10;99.90
62581;DHT22;48640;48.770;9.148;2023-12-04T14:43:53;1.20;99.90
62581;DHT22;48640;48.770;9.148;2023-12-04T14:46:20;1.40;99.90
62581;DHT22;48640;48.770;9.148;2023-12-04T14:48:50;1.40;99.90
62581;DHT22;48640;48.770;9.148;2023-12-04T14:51:17;1.90;99.90
62581;DHT22;48640;48.770;9.148;2023-12-04T14:53:44;1.60;99.90
62581;DHT22;48640;48.770;9.148;2023-12-04T14:56:16;1.20;99.90
62581;DHT22;48640;48.770;9.148;2023-12-04T14:58:51;1.90;99.90
62581;DHT22;48640;48.770;9.148;2023-12-04T15:02:00;1.70;99.90
62581;DHT22;48640;48.770;9.148;2023-12-04T15:04:49;2.10;99.90
62581;DHT22;48640;48.770;9.148;2023-12-04T15:07:34;1.60;99.90
62581;DHT22;48640;48.770;9.148;2023-12-04T15:10:20;1.50;99.90
62581;DHT22;48640;48.770;9.148;2023-12-04T15:13:06;1.40;99.90
62581;DHT22;48640;48.770;9.148;2023-12-04T15:15:47;1.40;99.90
62581;DHT22;48640;48.770;9.148;2023-12-04T15:18:48;1.30;99.90
62581;DHT22;48640;48.770;9.148;2023-12-04T15:21:42;1.10;99.90
62581;DHT22;48640;48.770;9.148;2023-12-04T15:24:11;1.30;99.90
62581;DHT22;48640;48.770;9.148;2023-12-04T15:26:36;1.40;99.90
62581;DHT22;48640;48.770;9.148;2023-12-04T15:29:03;1.10;99.90
62581;DHT22;48640;48.770;9.148;2023-12-04T15:31:31;1.10;99.90
62581;DHT22;48640;48.770;9.148;2023-12-04T15:33:59;1.40;99.90
62581;DHT22;48640;48.770;9.148;2023-12-04T15:36:24;1.20;99.90
62581;DHT22;48640;48.770;9.148;2023-12-04T15:38:51;1.30;99.90
62581;DHT22;48640;48.770;9.148;2023-12-04T15:41:17;1.90;99.90
62581;DHT22;48640;48.770;9.148;2023-12-04T15:43:46;1.50;99.90
62581;DHT22;48640;48.770;9.148;2023-12-04T15:46:15;2.00;99.90